createdAt,value
2018-11-12T00:00:37.090Z,99671.67
2018-11-12T00:05:55.607Z,99675.55
2018-11-12T00:11:14.181Z,99685.64
2018-11-12T00:16:32.715Z,99680.14
2018-11-12T00:21:51.338Z,99690.53
2018-11-12T00:27:09.849Z,99693.81
2018-11-12T00:32:28.489Z,99711.60
2018-11-12T00:37:47.058Z,99721.50
2018-11-12T00:43:05.754Z,99731.19
2018-11-12T00:48:24.313Z,99752.41
2018-11-12T00:53:42.824Z,99745.37
2018-11-12T00:59:01.364Z,99735.59
2018-11-12T01:04:20.008Z,99728.55
2018-11-12T01:09:38.616Z,99733.42
2018-11-12T01:14:57.208Z,99734.24
2018-11-12T01:20:16.639Z,99729.22
2018-11-12T01:25:35.197Z,99722.41
2018-11-12T01:30:57.863Z,99722.49
2018-11-12T01:36:17.552Z,99701.28
2018-11-12T01:41:36.468Z,99705.37
2018-11-12T01:46:56.651Z,99694.75
2018-11-12T01:52:15.203Z,99702.89
2018-11-12T01:57:33.682Z,99708.94
2018-11-12T02:02:53.244Z,99710.66
2018-11-12T02:08:11.820Z,99710.73
2018-11-12T02:13:30.826Z,99711.36
2018-11-12T02:18:49.362Z,99694.81
2018-11-12T02:24:07.912Z,99701.87
2018-11-12T02:29:26.704Z,99694.11
2018-11-12T02:34:45.504Z,99681.45
2018-11-12T02:40:04.410Z,99696.05
2018-11-12T02:45:23.560Z,99707.68
2018-11-12T02:50:42.610Z,99671.83
2018-11-12T02:56:01.224Z,99671.55
2018-11-12T03:01:23.608Z,99660.70
2018-11-12T03:06:42.828Z,99671.52
2018-11-12T03:12:01.350Z,99673.95
2018-11-12T03:17:19.955Z,99675.28
2018-11-12T03:22:39.622Z,99674.05
2018-11-12T03:27:58.723Z,99674.23
2018-11-12T03:33:17.223Z,99681.19
2018-11-12T03:38:35.755Z,99683.65
2018-11-12T03:43:55.492Z,99682.91
2018-11-12T03:49:14.645Z,99685.06
2018-11-12T03:54:33.187Z,99696.70
2018-11-12T03:59:51.819Z,99686.89
2018-11-12T04:05:10.538Z,99681.90
2018-11-12T04:10:29.463Z,99672.48
2018-11-12T04:15:47.963Z,99678.45
2018-11-12T04:21:06.830Z,99672.83
2018-11-12T04:26:25.364Z,99692.83
2018-11-12T04:31:44.735Z,99671.78
2018-11-12T04:37:03.395Z,99658.22
2018-11-12T04:42:21.928Z,99664.27
2018-11-12T04:47:41.316Z,99673.56
2018-11-12T04:53:00.978Z,99666.38
2018-11-12T04:58:20.046Z,99654.58
2018-11-12T05:03:39.662Z,99649.78
2018-11-12T05:08:58.941Z,99649.47
2018-11-12T05:14:17.486Z,99670.20
2018-11-12T05:19:36.002Z,99652.13
2018-11-12T05:24:54.629Z,99640.17
2018-11-12T05:30:15.633Z,99646.84
2018-11-12T05:35:40.839Z,99640.29
2018-11-12T05:40:59.461Z,99641.53
2018-11-12T05:46:17.975Z,99647.03
2018-11-12T05:51:36.517Z,99652.45
2018-11-12T05:56:56.031Z,99641.92
2018-11-12T06:02:15.005Z,99640.26
2018-11-12T06:07:33.576Z,99640.09
2018-11-12T06:12:52.334Z,99646.81
2018-11-12T06:18:10.851Z,99644.58
2018-11-12T06:23:29.431Z,99664.28
2018-11-12T06:28:48.042Z,99677.14
2018-11-12T06:34:06.891Z,99670.11
2018-11-12T06:39:25.408Z,99677.94
2018-11-12T06:44:43.941Z,99676.61
2018-11-12T06:50:02.650Z,99676.86
2018-11-12T06:55:21.658Z,99676.73
2018-11-12T07:00:40.206Z,99681.56
2018-11-12T07:05:58.734Z,99683.90
2018-11-12T07:11:17.905Z,99675.02
2018-11-12T07:16:37.143Z,99676.14
2018-11-12T07:21:55.711Z,99660.44
2018-11-12T07:27:14.834Z,99663.33
2018-11-12T07:32:33.378Z,99650.66
2018-11-12T07:37:53.419Z,99643.58
2018-11-12T07:43:11.915Z,99638.65
2018-11-12T07:48:30.489Z,99630.96
2018-11-12T07:53:49.040Z,99603.88
2018-11-12T07:59:07.611Z,99621.53
2018-11-12T08:04:26.785Z,99617.22
2018-11-12T08:09:45.379Z,99621.88
2018-11-12T08:15:04.019Z,99619.30
2018-11-12T08:20:24.074Z,99620.01
2018-11-12T08:25:43.144Z,99620.01
2018-11-12T08:31:01.647Z,99611.11
2018-11-12T08:36:20.245Z,99603.14
2018-11-12T08:41:39.441Z,99583.96
2018-11-12T08:46:57.992Z,99582.55
2018-11-12T08:52:16.567Z,99563.26
2018-11-12T08:57:35.855Z,99596.34
2018-11-12T09:02:54.412Z,99584.50
2018-11-12T09:08:12.949Z,99581.26
2018-11-12T09:13:31.794Z,99590.17
2018-11-12T09:18:50.331Z,99586.78
2018-11-12T09:24:08.966Z,99588.94
2018-11-12T09:29:27.579Z,99582.55
2018-11-12T09:34:46.064Z,99579.69
2018-11-12T09:40:05.082Z,99581.26
2018-11-12T09:45:23.674Z,99563.89
2018-11-12T09:50:42.372Z,99563.04
2018-11-12T09:56:01.553Z,99561.53
2018-11-12T10:01:20.417Z,99557.59
2018-11-12T10:06:40.323Z,99559.80
2018-11-12T10:11:59.631Z,99565.97
2018-11-12T10:17:20.335Z,99555.76
2018-11-12T10:22:35.018Z,99567.94
2018-11-12T10:27:53.582Z,99570.70
2018-11-12T10:33:12.111Z,99587.92
2018-11-12T10:38:30.612Z,99582.33
2018-11-12T10:43:49.160Z,99573.30
2018-11-12T10:49:07.663Z,99572.95
2018-11-12T10:54:26.373Z,99580.69
2018-11-12T10:59:45.593Z,99582.21
2018-11-12T11:05:04.059Z,99576.00
2018-11-12T11:10:23.831Z,99579.28
2018-11-12T11:15:43.275Z,99587.98
2018-11-12T11:21:02.485Z,99588.45
2018-11-12T11:26:21.004Z,99602.66
2018-11-12T11:31:39.613Z,99595.94
2018-11-12T11:36:58.794Z,99576.84
2018-11-12T11:42:17.566Z,99589.92
2018-11-12T11:47:36.661Z,99578.64
2018-11-12T11:52:55.151Z,99574.55
2018-11-12T11:58:14.117Z,99567.41
2018-11-12T12:03:32.665Z,99574.95
2018-11-12T12:08:51.275Z,99581.17
2018-11-12T12:14:09.754Z,99571.20
2018-11-12T12:19:28.326Z,99579.42
2018-11-12T12:24:47.098Z,99585.69
2018-11-12T12:30:09.477Z,99584.00
2018-11-12T12:35:28.787Z,99596.81
2018-11-12T12:40:47.407Z,99604.47
2018-11-12T12:46:06.552Z,99597.55
2018-11-12T12:51:25.743Z,99610.28
2018-11-12T12:56:44.463Z,99611.73
2018-11-12T13:02:03.419Z,99639.30
2018-11-12T13:07:22.023Z,99624.34
2018-11-12T13:12:41.273Z,99643.80
2018-11-12T13:17:59.941Z,99661.14
2018-11-12T13:23:19.390Z,99678.84
2018-11-12T13:28:37.972Z,99690.73
2018-11-12T13:33:57.445Z,99712.98
2018-11-12T13:39:16.072Z,99712.40
2018-11-12T13:44:35.208Z,99706.33
2018-11-12T13:49:53.891Z,99724.44
2018-11-12T13:55:13.507Z,99701.61
2018-11-12T14:00:32.220Z,99710.08
2018-11-12T14:05:51.443Z,99725.38
2018-11-12T14:11:10.653Z,99727.05
2018-11-12T14:16:29.172Z,99745.01
2018-11-12T14:21:47.768Z,99745.68
2018-11-12T14:27:06.462Z,99754.92
2018-11-12T14:32:26.198Z,99765.49
2018-11-12T14:37:46.767Z,99774.02
2018-11-12T14:43:05.860Z,99756.14
2018-11-12T14:48:24.554Z,99769.91
2018-11-12T14:53:44.958Z,99781.78
2018-11-12T14:59:04.742Z,99795.69
2018-11-12T15:04:23.302Z,99798.56
2018-11-12T15:09:43.482Z,99814.79
2018-11-12T15:15:02.136Z,99823.13
2018-11-12T15:20:20.943Z,99829.27
2018-11-12T15:25:39.905Z,99843.06
2018-11-12T15:30:58.584Z,99853.45
2018-11-12T15:36:17.792Z,99845.08
2018-11-12T15:41:36.806Z,99844.57
2018-11-12T15:46:55.367Z,99857.24
2018-11-12T15:52:14.029Z,99865.66
2018-11-12T15:57:33.654Z,99862.23
2018-11-12T16:02:52.336Z,99886.48
2018-11-12T16:08:10.943Z,99888.31
2018-11-12T16:13:30.615Z,99905.11
2018-11-12T16:18:49.360Z,99918.64
2018-11-12T16:24:08.361Z,99938.09
2018-11-12T16:29:28.507Z,99948.23
2018-11-12T16:34:47.047Z,99946.31
2018-11-12T16:40:06.320Z,99958.00
2018-11-12T16:45:24.916Z,99973.14
2018-11-12T16:50:43.469Z,99986.73
2018-11-12T16:56:03.276Z,99999.27
2018-11-12T17:01:23.443Z,100010.34
2018-11-12T17:06:42.710Z,100012.61
2018-11-12T17:12:02.009Z,100014.03
2018-11-12T17:17:20.607Z,100039.08
2018-11-12T17:22:39.195Z,100035.30
2018-11-12T17:27:57.824Z,100055.88
2018-11-12T17:33:16.520Z,100067.43
2018-11-12T17:38:35.138Z,100076.64
2018-11-12T17:43:54.424Z,100085.31
2018-11-12T17:49:13.112Z,100076.52
2018-11-12T17:54:31.926Z,100085.00
2018-11-12T17:59:50.435Z,100102.09
2018-11-12T18:05:10.644Z,100092.27
2018-11-12T18:10:29.282Z,100106.89
2018-11-12T18:15:49.064Z,100115.37
2018-11-12T18:21:08.352Z,100133.38
2018-11-12T18:26:26.947Z,100116.70
2018-11-12T18:31:45.893Z,100127.74
2018-11-12T18:37:04.355Z,100124.45
2018-11-12T18:42:23.035Z,100142.72
2018-11-12T18:47:42.103Z,100150.41
2018-11-12T18:53:00.804Z,100170.25
2018-11-12T18:58:19.875Z,100200.92
2018-11-12T19:03:39.796Z,100192.02
2018-11-12T19:08:58.782Z,100194.77
2018-11-12T19:14:17.534Z,100183.84
2018-11-12T19:19:36.134Z,100202.41
2018-11-12T19:24:55.324Z,100187.88
2018-11-12T19:30:16.328Z,100207.41
2018-11-12T19:35:35.710Z,100193.41
2018-11-12T19:40:55.847Z,100195.64
2018-11-12T19:46:15.412Z,100198.59
2018-11-12T19:51:34.261Z,100192.06
2018-11-12T19:56:54.856Z,100220.19
2018-11-12T20:02:15.122Z,100225.53
2018-11-12T20:07:33.768Z,100215.25
2018-11-12T20:12:52.900Z,100201.78
2018-11-12T20:18:12.031Z,100228.21
2018-11-12T20:23:30.657Z,100232.41
2018-11-12T20:28:49.308Z,100236.82
2018-11-12T20:34:08.309Z,100234.85
2018-11-12T20:39:27.408Z,100244.55
2018-11-12T20:44:46.302Z,100232.70
2018-11-12T20:50:06.119Z,100226.30
2018-11-12T20:55:24.745Z,100226.53
2018-11-12T21:00:43.404Z,100224.92
2018-11-12T21:06:02.020Z,100231.24
2018-11-12T21:11:20.773Z,100232.28
2018-11-12T21:16:39.768Z,100247.05
2018-11-12T21:21:58.465Z,100234.19
2018-11-12T21:27:17.129Z,100239.48
2018-11-12T21:32:36.032Z,100246.89
2018-11-12T21:37:55.675Z,100255.47
2018-11-12T21:43:14.388Z,100229.67
2018-11-12T21:48:32.884Z,100227.68
2018-11-12T21:53:51.412Z,100247.28
2018-11-12T21:59:10.010Z,100245.10
2018-11-12T22:04:28.567Z,100255.52
2018-11-12T22:09:47.199Z,100262.30
2018-11-12T22:15:07.075Z,100265.35
2018-11-12T22:20:27.013Z,100264.42
2018-11-12T22:25:46.163Z,100266.17
2018-11-12T22:31:05.320Z,100259.67
2018-11-12T22:36:23.905Z,100286.39
2018-11-12T22:41:42.533Z,100296.17
2018-11-12T22:47:07.580Z,100300.72
2018-11-12T22:52:26.299Z,100299.02
2018-11-12T22:57:47.018Z,100291.44
2018-11-12T23:03:06.678Z,100300.66
2018-11-12T23:08:25.885Z,100293.51
2018-11-12T23:13:44.523Z,100289.34
2018-11-12T23:19:03.159Z,100305.30
2018-11-12T23:24:21.804Z,100307.33
2018-11-12T23:29:40.415Z,100302.41
2018-11-12T23:34:59.062Z,100303.80
2018-11-12T23:40:18.688Z,100297.34
2018-11-12T23:45:37.299Z,100279.66
2018-11-12T23:50:55.900Z,100284.45
2018-11-12T23:56:14.457Z,100291.66
